sensor_id;sensor_type;location;lat;lon;timestamp;temperature;humidity
16038;DHT22;8123;50.906;6.172;2023-07-08T00:00:50;20.50;39.10
16038;DHT22;8123;50.906;6.172;2023-07-08T00:03:17;20.60;36.90
16038;DHT22;8123;50.906;6.172;2023-07-08T00:05:44;20.50;39.50
16038;DHT22;8123;50.906;6.172;2023-07-08T00:08:14;20.50;40.70
16038;DHT22;8123;50.906;6.172;2023-07-08T00:10:40;20.60;41.00
16038;DHT22;8123;50.906;6.172;2023-07-08T00:13:07;20.60;40.10
16038;DHT22;8123;50.906;6.172;2023-07-08T00:15:33;20.60;39.60
16038;DHT22;8123;50.906;6.172;2023-07-08T00:17:59;20.60;39.90
16038;DHT22;8123;50.906;6.172;2023-07-08T00:20:39;20.70;38.70
16038;DHT22;8123;50.906;6.172;2023-07-08T00:23:07;20.70;37.50
16038;DHT22;8123;50.906;6.172;2023-07-08T00:25:33;20.60;35.40
16038;DHT22;8123;50.906;6.172;2023-07-08T00:27:58;20.70;34.60
16038;DHT22;8123;50.906;6.172;2023-07-08T00:30:27;20.70;34.80
16038;DHT22;8123;50.906;6.172;2023-07-08T00:32:54;20.70;34.50
16038;DHT22;8123;50.906;6.172;2023-07-08T00:37:53;20.60;36.70
16038;DHT22;8123;50.906;6.172;2023-07-08T00:40:27;20.70;42.70
16038;DHT22;8123;50.906;6.172;2023-07-08T00:42:53;20.70;42.60
16038;DHT22;8123;50.906;6.172;2023-07-08T00:45:39;20.60;43.50
16038;DHT22;8123;50.906;6.172;2023-07-08T00:48:22;20.60;43.30
16038;DHT22;8123;50.906;6.172;2023-07-08T00:50:48;20.60;41.70
16038;DHT22;8123;50.906;6.172;2023-07-08T00:55:50;20.60;42.10
16038;DHT22;8123;50.906;6.172;2023-07-08T00:58:19;20.50;38.70
16038;DHT22;8123;50.906;6.172;2023-07-08T01:00:46;20.50;41.10
16038;DHT22;8123;50.906;6.172;2023-07-08T01:03:15;20.50;41.20
16038;DHT22;8123;50.906;6.172;2023-07-08T01:05:42;20.40;39.80
16038;DHT22;8123;50.906;6.172;2023-07-08T01:08:09;20.40;41.30
16038;DHT22;8123;50.906;6.172;2023-07-08T01:10:43;20.30;41.40
16038;DHT22;8123;50.906;6.172;2023-07-08T01:13:11;20.40;42.60
16038;DHT22;8123;50.906;6.172;2023-07-08T01:15:41;20.40;41.50
16038;DHT22;8123;50.906;6.172;2023-07-08T01:18:09;20.30;42.00
16038;DHT22;8123;50.906;6.172;2023-07-08T01:20:35;20.30;44.80
16038;DHT22;8123;50.906;6.172;2023-07-08T01:23:01;20.30;41.50
16038;DHT22;8123;50.906;6.172;2023-07-08T01:25:27;20.20;43.60
16038;DHT22;8123;50.906;6.172;2023-07-08T01:27:55;20.10;41.60
16038;DHT22;8123;50.906;6.172;2023-07-08T01:30:22;20.20;42.50
16038;DHT22;8123;50.906;6.172;2023-07-08T01:32:50;20.10;42.90
16038;DHT22;8123;50.906;6.172;2023-07-08T01:35:18;20.10;41.30
16038;DHT22;8123;50.906;6.172;2023-07-08T01:38:00;20.10;41.20
16038;DHT22;8123;50.906;6.172;2023-07-08T01:42:57;19.90;38.60
16038;DHT22;8123;50.906;6.172;2023-07-08T01:45:25;20.00;38.90
16038;DHT22;8123;50.906;6.172;2023-07-08T01:47:56;19.90;39.40
16038;DHT22;8123;50.906;6.172;2023-07-08T01:50:25;19.90;37.60
16038;DHT22;8123;50.906;6.172;2023-07-08T01:52:52;19.90;38.80
16038;DHT22;8123;50.906;6.172;2023-07-08T01:55:23;19.80;37.90
16038;DHT22;8123;50.906;6.172;2023-07-08T01:57:51;19.80;39.00
16038;DHT22;8123;50.906;6.172;2023-07-08T02:00:17;19.80;39.20
16038;DHT22;8123;50.906;6.172;2023-07-08T02:02:43;19.70;41.10
16038;DHT22;8123;50.906;6.172;2023-07-08T02:05:08;19.70;41.30
16038;DHT22;8123;50.906;6.172;2023-07-08T02:07:34;19.60;41.80
16038;DHT22;8123;50.906;6.172;2023-07-08T02:09:59;19.50;46.50
16038;DHT22;8123;50.906;6.172;2023-07-08T02:12:25;19.50;46.30
16038;DHT22;8123;50.906;6.172;2023-07-08T02:14:50;19.50;47.20
16038;DHT22;8123;50.906;6.172;2023-07-08T02:17:16;19.50;48.50
16038;DHT22;8123;50.906;6.172;2023-07-08T02:19:43;19.50;45.60
16038;DHT22;8123;50.906;6.172;2023-07-08T02:22:09;19.40;47.20
16038;DHT22;8123;50.906;6.172;2023-07-08T02:24:34;19.40;46.10
16038;DHT22;8123;50.906;6.172;2023-07-08T02:27:00;19.50;46.80
16038;DHT22;8123;50.906;6.172;2023-07-08T02:29:25;19.60;46.20
16038;DHT22;8123;50.906;6.172;2023-07-08T02:31:51;19.60;46.30
16038;DHT22;8123;50.906;6.172;2023-07-08T02:34:17;19.60;48.00
16038;DHT22;8123;50.906;6.172;2023-07-08T02:36:43;19.50;47.90
16038;DHT22;8123;50.906;6.172;2023-07-08T02:39:10;19.50;50.10
16038;DHT22;8123;50.906;6.172;2023-07-08T02:41:36;19.50;52.40
16038;DHT22;8123;50.906;6.172;2023-07-08T02:44:02;19.40;55.50
16038;DHT22;8123;50.906;6.172;2023-07-08T02:46:28;19.40;56.30
16038;DHT22;8123;50.906;6.172;2023-07-08T02:48:53;19.30;55.00
16038;DHT22;8123;50.906;6.172;2023-07-08T02:51:19;19.20;60.80
16038;DHT22;8123;50.906;6.172;2023-07-08T02:53:44;19.20;63.90
16038;DHT22;8123;50.906;6.172;2023-07-08T02:56:10;19.10;67.00
16038;DHT22;8123;50.906;6.172;2023-07-08T02:58:36;19.00;67.80
16038;DHT22;8123;50.906;6.172;2023-07-08T03:01:02;19.00;74.00
16038;DHT22;8123;50.906;6.172;2023-07-08T03:03:28;18.90;73.60
16038;DHT22;8123;50.906;6.172;2023-07-08T03:05:58;18.90;78.70
16038;DHT22;8123;50.906;6.172;2023-07-08T03:08:25;18.80;80.70
16038;DHT22;8123;50.906;6.172;2023-07-08T03:10:56;18.70;81.50
16038;DHT22;8123;50.906;6.172;2023-07-08T03:13:23;18.70;89.80
16038;DHT22;8123;50.906;6.172;2023-07-08T03:15:49;18.70;83.80
16038;DHT22;8123;50.906;6.172;2023-07-08T03:18:14;18.60;86.90
16038;DHT22;8123;50.906;6.172;2023-07-08T03:20:41;18.60;86.20
16038;DHT22;8123;50.906;6.172;2023-07-08T03:23:06;18.60;81.80
16038;DHT22;8123;50.906;6.172;2023-07-08T03:25:32;18.60;76.80
16038;DHT22;8123;50.906;6.172;2023-07-08T03:27:57;18.60;78.20
16038;DHT22;8123;50.906;6.172;2023-07-08T03:30:23;18.60;77.00
16038;DHT22;8123;50.906;6.172;2023-07-08T03:32:49;18.60;82.40
16038;DHT22;8123;50.906;6.172;2023-07-08T03:35:14;18.50;75.80
16038;DHT22;8123;50.906;6.172;2023-07-08T03:37:41;18.50;78.40
16038;DHT22;8123;50.906;6.172;2023-07-08T03:40:08;18.50;78.40
16038;DHT22;8123;50.906;6.172;2023-07-08T03:42:35;18.50;80.40
16038;DHT22;8123;50.906;6.172;2023-07-08T03:45:00;18.50;75.90
16038;DHT22;8123;50.906;6.172;2023-07-08T03:47:26;18.50;74.10
16038;DHT22;8123;50.906;6.172;2023-07-08T03:49:52;18.60;68.20
16038;DHT22;8123;50.906;6.172;2023-07-08T03:52:17;18.70;67.60
16038;DHT22;8123;50.906;6.172;2023-07-08T03:54:44;18.80;66.80
16038;DHT22;8123;50.906;6.172;2023-07-08T03:57:09;18.80;65.80
16038;DHT22;8123;50.906;6.172;2023-07-08T03:59:35;18.80;69.30
16038;DHT22;8123;50.906;6.172;2023-07-08T04:02:01;18.90;71.10
16038;DHT22;8123;50.906;6.172;2023-07-08T04:04:26;18.90;67.50
16038;DHT22;8123;50.906;6.172;2023-07-08T04:06:52;18.90;72.60
16038;DHT22;8123;50.906;6.172;2023-07-08T04:09:18;18.90;70.80
16038;DHT22;8123;50.906;6.172;2023-07-08T04:11:44;18.90;65.10
16038;DHT22;8123;50.906;6.172;2023-07-08T04:14:10;18.90;67.60
16038;DHT22;8123;50.906;6.172;2023-07-08T04:16:59;18.90;68.50
16038;DHT22;8123;50.906;6.172;2023-07-08T04:19:26;19.00;71.80
16038;DHT22;8123;50.906;6.172;2023-07-08T04:21:52;18.90;69.20
16038;DHT22;8123;50.906;6.172;2023-07-08T04:24:18;19.00;68.90
16038;DHT22;8123;50.906;6.172;2023-07-08T04:26:46;19.10;61.40
16038;DHT22;8123;50.906;6.172;2023-07-08T04:29:17;19.30;59.60
16038;DHT22;8123;50.906;6.172;2023-07-08T04:31:43;19.50;55.30
16038;DHT22;8123;50.906;6.172;2023-07-08T04:34:09;19.70;56.50
16038;DHT22;8123;50.906;6.172;2023-07-08T04:36:36;19.90;53.20
16038;DHT22;8123;50.906;6.172;2023-07-08T04:39:03;20.00;46.10
16038;DHT22;8123;50.906;6.172;2023-07-08T04:41:30;20.40;39.80
16038;DHT22;8123;50.906;6.172;2023-07-08T04:43:56;20.60;39.10
16038;DHT22;8123;50.906;6.172;2023-07-08T04:46:39;20.80;36.60
16038;DHT22;8123;50.906;6.172;2023-07-08T04:49:07;21.10;34.80
16038;DHT22;8123;50.906;6.172;2023-07-08T04:51:35;21.30;31.50
16038;DHT22;8123;50.906;6.172;2023-07-08T04:54:01;21.30;30.90
16038;DHT22;8123;50.906;6.172;2023-07-08T04:56:36;21.10;31.70
16038;DHT22;8123;50.906;6.172;2023-07-08T04:59:02;20.90;32.30
16038;DHT22;8123;50.906;6.172;2023-07-08T05:01:28;20.80;32.50
16038;DHT22;8123;50.906;6.172;2023-07-08T05:03:54;20.80;32.00
16038;DHT22;8123;50.906;6.172;2023-07-08T05:06:20;20.70;33.50
16038;DHT22;8123;50.906;6.172;2023-07-08T05:08:45;20.60;34.90
16038;DHT22;8123;50.906;6.172;2023-07-08T05:11:11;20.60;35.60
16038;DHT22;8123;50.906;6.172;2023-07-08T05:13:36;20.50;35.40
16038;DHT22;8123;50.906;6.172;2023-07-08T05:16:02;20.50;39.00
16038;DHT22;8123;50.906;6.172;2023-07-08T05:18:28;20.60;39.20
16038;DHT22;8123;50.906;6.172;2023-07-08T05:20:53;20.80;38.20
16038;DHT22;8123;50.906;6.172;2023-07-08T05:23:20;20.70;36.60
16038;DHT22;8123;50.906;6.172;2023-07-08T05:25:46;20.70;37.80
16038;DHT22;8123;50.906;6.172;2023-07-08T05:28:12;20.90;41.60
16038;DHT22;8123;50.906;6.172;2023-07-08T05:30:40;21.10;40.40
16038;DHT22;8123;50.906;6.172;2023-07-08T05:33:06;21.10;39.00
16038;DHT22;8123;50.906;6.172;2023-07-08T05:35:32;21.20;35.40
16038;DHT22;8123;50.906;6.172;2023-07-08T05:37:57;21.10;36.50
16038;DHT22;8123;50.906;6.172;2023-07-08T05:40:23;21.20;38.20
16038;DHT22;8123;50.906;6.172;2023-07-08T05:42:49;21.20;36.70
16038;DHT22;8123;50.906;6.172;2023-07-08T05:45:14;21.00;36.30
16038;DHT22;8123;50.906;6.172;2023-07-08T05:47:40;20.90;40.00
16038;DHT22;8123;50.906;6.172;2023-07-08T05:50:06;20.80;41.40
16038;DHT22;8123;50.906;6.172;2023-07-08T05:52:32;20.80;42.50
16038;DHT22;8123;50.906;6.172;2023-07-08T05:54:57;20.80;39.30
16038;DHT22;8123;50.906;6.172;2023-07-08T05:57:23;21.00;41.50
16038;DHT22;8123;50.906;6.172;2023-07-08T05:59:49;21.00;40.10
16038;DHT22;8123;50.906;6.172;2023-07-08T06:02:16;21.10;38.50
16038;DHT22;8123;50.906;6.172;2023-07-08T06:04:42;21.20;37.60
16038;DHT22;8123;50.906;6.172;2023-07-08T06:07:08;21.30;38.60
16038;DHT22;8123;50.906;6.172;2023-07-08T06:09:34;21.20;39.00
16038;DHT22;8123;50.906;6.172;2023-07-08T06:11:59;21.20;38.50
16038;DHT22;8123;50.906;6.172;2023-07-08T06:14:27;21.10;38.20
16038;DHT22;8123;50.906;6.172;2023-07-08T06:16:53;21.10;40.50
16038;DHT22;8123;50.906;6.172;2023-07-08T06:19:20;21.20;38.50
16038;DHT22;8123;50.906;6.172;2023-07-08T06:21:46;21.20;38.60
16038;DHT22;8123;50.906;6.172;2023-07-08T06:24:11;21.20;38.40
16038;DHT22;8123;50.906;6.172;2023-07-08T06:26:37;21.20;37.40
16038;DHT22;8123;50.906;6.172;2023-07-08T06:29:04;21.20;38.60
16038;DHT22;8123;50.906;6.172;2023-07-08T06:31:29;21.30;40.40
16038;DHT22;8123;50.906;6.172;2023-07-08T06:33:55;21.40;40.90
16038;DHT22;8123;50.906;6.172;2023-07-08T06:36:20;21.40;39.90
16038;DHT22;8123;50.906;6.172;2023-07-08T06:38:47;21.50;38.90
16038;DHT22;8123;50.906;6.172;2023-07-08T06:41:13;21.60;41.00
16038;DHT22;8123;50.906;6.172;2023-07-08T06:43:38;21.70;39.10
16038;DHT22;8123;50.906;6.172;2023-07-08T06:46:04;21.80;38.90
16038;DHT22;8123;50.906;6.172;2023-07-08T06:48:31;22.00;39.40
16038;DHT22;8123;50.906;6.172;2023-07-08T06:50:57;22.00;38.50
16038;DHT22;8123;50.906;6.172;2023-07-08T06:53:23;22.00;38.30
16038;DHT22;8123;50.906;6.172;2023-07-08T06:55:49;22.10;38.70
16038;DHT22;8123;50.906;6.172;2023-07-08T06:58:15;22.00;38.60
16038;DHT22;8123;50.906;6.172;2023-07-08T07:00:44;22.10;40.20
16038;DHT22;8123;50.906;6.172;2023-07-08T07:03:10;22.20;39.20
16038;DHT22;8123;50.906;6.172;2023-07-08T07:05:37;22.30;38.30
16038;DHT22;8123;50.906;6.172;2023-07-08T07:08:04;22.40;38.20
16038;DHT22;8123;50.906;6.172;2023-07-08T07:10:30;22.40;37.00
16038;DHT22;8123;50.906;6.172;2023-07-08T07:12:56;22.60;36.50
16038;DHT22;8123;50.906;6.172;2023-07-08T07:15:21;22.60;38.80
16038;DHT22;8123;50.906;6.172;2023-07-08T07:17:47;22.70;36.30
16038;DHT22;8123;50.906;6.172;2023-07-08T07:20:13;22.80;34.00
16038;DHT22;8123;50.906;6.172;2023-07-08T07:22:38;23.00;35.50
16038;DHT22;8123;50.906;6.172;2023-07-08T07:25:04;23.10;36.60
16038;DHT22;8123;50.906;6.172;2023-07-08T07:27:30;23.20;33.50
16038;DHT22;8123;50.906;6.172;2023-07-08T07:29:56;23.30;34.70
16038;DHT22;8123;50.906;6.172;2023-07-08T07:32:25;23.40;32.20
16038;DHT22;8123;50.906;6.172;2023-07-08T07:34:51;23.40;31.50
16038;DHT22;8123;50.906;6.172;2023-07-08T07:37:19;23.60;31.40
16038;DHT22;8123;50.906;6.172;2023-07-08T07:39:45;23.70;29.80
16038;DHT22;8123;50.906;6.172;2023-07-08T07:42:12;23.80;28.40
16038;DHT22;8123;50.906;6.172;2023-07-08T07:44:38;23.80;28.70
16038;DHT22;8123;50.906;6.172;2023-07-08T07:47:08;23.90;28.30
16038;DHT22;8123;50.906;6.172;2023-07-08T07:49:34;24.10;28.70
16038;DHT22;8123;50.906;6.172;2023-07-08T07:51:59;24.20;28.30
16038;DHT22;8123;50.906;6.172;2023-07-08T07:54:25;24.30;28.00
16038;DHT22;8123;50.906;6.172;2023-07-08T07:56:51;24.30;27.90
16038;DHT22;8123;50.906;6.172;2023-07-08T07:59:17;24.40;27.50
16038;DHT22;8123;50.906;6.172;2023-07-08T08:01:42;24.40;26.30
16038;DHT22;8123;50.906;6.172;2023-07-08T08:04:10;24.50;24.70
16038;DHT22;8123;50.906;6.172;2023-07-08T08:06:35;24.60;24.50
16038;DHT22;8123;50.906;6.172;2023-07-08T08:09:02;24.70;23.80
16038;DHT22;8123;50.906;6.172;2023-07-08T08:11:28;24.80;23.40
16038;DHT22;8123;50.906;6.172;2023-07-08T08:13:53;24.90;23.80
16038;DHT22;8123;50.906;6.172;2023-07-08T08:16:20;24.90;24.20
16038;DHT22;8123;50.906;6.172;2023-07-08T08:18:46;25.00;23.60
16038;DHT22;8123;50.906;6.172;2023-07-08T08:21:12;25.00;24.00
16038;DHT22;8123;50.906;6.172;2023-07-08T08:23:37;25.10;23.10
16038;DHT22;8123;50.906;6.172;2023-07-08T08:26:03;25.10;23.30
16038;DHT22;8123;50.906;6.172;2023-07-08T08:28:29;25.10;22.10
16038;DHT22;8123;50.906;6.172;2023-07-08T08:30:54;25.10;21.90
16038;DHT22;8123;50.906;6.172;2023-07-08T08:33:20;25.10;21.70
16038;DHT22;8123;50.906;6.172;2023-07-08T08:35:46;25.10;20.20
16038;DHT22;8123;50.906;6.172;2023-07-08T08:38:15;25.30;20.60
16038;DHT22;8123;50.906;6.172;2023-07-08T08:40:43;25.20;20.20
16038;DHT22;8123;50.906;6.172;2023-07-08T08:46:04;25.60;17.80
16038;DHT22;8123;50.906;6.172;2023-07-08T08:48:33;25.70;17.80
16038;DHT22;8123;50.906;6.172;2023-07-08T08:51:08;25.70;18.00
16038;DHT22;8123;50.906;6.172;2023-07-08T08:53:35;25.70;18.20
16038;DHT22;8123;50.906;6.172;2023-07-08T08:56:09;25.90;17.70
16038;DHT22;8123;50.906;6.172;2023-07-08T08:58:44;25.90;17.50
16038;DHT22;8123;50.906;6.172;2023-07-08T09:01:15;25.80;17.60
16038;DHT22;8123;50.906;6.172;2023-07-08T09:03:56;25.90;16.80
16038;DHT22;8123;50.906;6.172;2023-07-08T09:06:23;25.90;18.10
16038;DHT22;8123;50.906;6.172;2023-07-08T09:08:51;26.00;15.90
16038;DHT22;8123;50.906;6.172;2023-07-08T09:14:00;26.20;15.90
16038;DHT22;8123;50.906;6.172;2023-07-08T09:16:30;26.30;15.80
16038;DHT22;8123;50.906;6.172;2023-07-08T09:19:21;26.30;15.40
16038;DHT22;8123;50.906;6.172;2023-07-08T09:24:53;26.40;16.40
16038;DHT22;8123;50.906;6.172;2023-07-08T09:27:21;26.50;17.20
16038;DHT22;8123;50.906;6.172;2023-07-08T09:29:47;26.60;15.70
16038;DHT22;8123;50.906;6.172;2023-07-08T09:37:32;26.50;15.00
16038;DHT22;8123;50.906;6.172;2023-07-08T09:39:59;26.50;14.40
16038;DHT22;8123;50.906;6.172;2023-07-08T09:42:30;26.50;14.00
16038;DHT22;8123;50.906;6.172;2023-07-08T09:45:02;26.80;13.30
16038;DHT22;8123;50.906;6.172;2023-07-08T09:47:36;27.00;11.30
16038;DHT22;8123;50.906;6.172;2023-07-08T09:50:06;27.10;10.40
16038;DHT22;8123;50.906;6.172;2023-07-08T09:52:41;27.20;9.00
16038;DHT22;8123;50.906;6.172;2023-07-08T09:55:11;27.30;8.60
16038;DHT22;8123;50.906;6.172;2023-07-08T09:57:37;27.30;8.50
16038;DHT22;8123;50.906;6.172;2023-07-08T10:00:09;27.40;7.70
16038;DHT22;8123;50.906;6.172;2023-07-08T10:02:55;27.40;6.70
16038;DHT22;8123;50.906;6.172;2023-07-08T10:05:30;27.40;6.60
16038;DHT22;8123;50.906;6.172;2023-07-08T10:07:57;27.40;6.60
16038;DHT22;8123;50.906;6.172;2023-07-08T10:10:42;27.60;5.60
16038;DHT22;8123;50.906;6.172;2023-07-08T10:13:24;27.60;6.20
16038;DHT22;8123;50.906;6.172;2023-07-08T10:16:00;27.50;6.40
16038;DHT22;8123;50.906;6.172;2023-07-08T10:18:31;27.50;5.80
16038;DHT22;8123;50.906;6.172;2023-07-08T10:26:32;27.90;2.90
16038;DHT22;8123;50.906;6.172;2023-07-08T10:29:18;27.90;2.70
16038;DHT22;8123;50.906;6.172;2023-07-08T10:31:58;28.10;1.00
16038;DHT22;8123;50.906;6.172;2023-07-08T10:37:29;28.40;1.00
16038;DHT22;8123;50.906;6.172;2023-07-08T10:40:14;28.40;1.00
16038;DHT22;8123;50.906;6.172;2023-07-08T10:45:46;28.30;1.00
16038;DHT22;8123;50.906;6.172;2023-07-08T10:56:01;28.40;1.00
16038;DHT22;8123;50.906;6.172;2023-07-08T11:01:48;28.30;1.00
16038;DHT22;8123;50.906;6.172;2023-07-08T11:06:51;28.40;1.00
16038;DHT22;8123;50.906;6.172;2023-07-08T11:09:29;28.70;1.00
16038;DHT22;8123;50.906;6.172;2023-07-08T11:12:35;28.50;1.00
16038;DHT22;8123;50.906;6.172;2023-07-08T11:15:14;28.60;1.00
16038;DHT22;8123;50.906;6.172;2023-07-08T11:23:33;28.60;1.00
16038;DHT22;8123;50.906;6.172;2023-07-08T11:26:07;28.70;1.00
16038;DHT22;8123;50.906;6.172;2023-07-08T11:28:35;28.70;1.00
16038;DHT22;8123;50.906;6.172;2023-07-08T11:31:02;28.90;1.00
16038;DHT22;8123;50.906;6.172;2023-07-08T11:33:30;29.10;1.00
16038;DHT22;8123;50.906;6.172;2023-07-08T11:35:58;29.30;1.00
16038;DHT22;8123;50.906;6.172;2023-07-08T11:38:25;29.20;1.00
16038;DHT22;8123;50.906;6.172;2023-07-08T11:43:25;29.20;1.00
16038;DHT22;8123;50.906;6.172;2023-07-08T11:45:55;29.10;1.00
16038;DHT22;8123;50.906;6.172;2023-07-08T11:48:27;29.20;1.00
16038;DHT22;8123;50.906;6.172;2023-07-08T11:50:55;29.20;1.00
16038;DHT22;8123;50.906;6.172;2023-07-08T11:58:59;29.30;1.00
16038;DHT22;8123;50.906;6.172;2023-07-08T12:01:37;29.00;1.00
16038;DHT22;8123;50.906;6.172;2023-07-08T12:09:14;29.10;1.00
16038;DHT22;8123;50.906;6.172;2023-07-08T12:11:44;29.20;1.00
16038;DHT22;8123;50.906;6.172;2023-07-08T12:14:10;29.40;1.00
16038;DHT22;8123;50.906;6.172;2023-07-08T12:16:36;29.50;1.00
16038;DHT22;8123;50.906;6.172;2023-07-08T12:19:04;29.40;1.00
16038;DHT22;8123;50.906;6.172;2023-07-08T12:21:34;29.30;1.00
16038;DHT22;8123;50.906;6.172;2023-07-08T12:24:05;29.30;1.00
16038;DHT22;8123;50.906;6.172;2023-07-08T12:26:32;29.30;1.00
16038;DHT22;8123;50.906;6.172;2023-07-08T12:28:58;29.50;1.00
16038;DHT22;8123;50.906;6.172;2023-07-08T12:31:24;29.40;1.00
16038;DHT22;8123;50.906;6.172;2023-07-08T12:33:50;29.40;1.00
16038;DHT22;8123;50.906;6.172;2023-07-08T12:36:21;29.30;1.00
16038;DHT22;8123;50.906;6.172;2023-07-08T12:38:49;29.10;1.00
16038;DHT22;8123;50.906;6.172;2023-07-08T12:41:18;29.10;1.00
16038;DHT22;8123;50.906;6.172;2023-07-08T12:43:45;29.20;1.00
16038;DHT22;8123;50.906;6.172;2023-07-08T12:46:12;29.20;1.00
16038;DHT22;8123;50.906;6.172;2023-07-08T12:48:39;29.20;1.00
16038;DHT22;8123;50.906;6.172;2023-07-08T12:51:09;29.30;1.00
16038;DHT22;8123;50.906;6.172;2023-07-08T12:53:35;29.20;1.00
16038;DHT22;8123;50.906;6.172;2023-07-08T12:56:02;29.20;1.00
16038;DHT22;8123;50.906;6.172;2023-07-08T12:58:33;29.20;1.00
16038;DHT22;8123;50.906;6.172;2023-07-08T13:01:02;29.20;1.00
16038;DHT22;8123;50.906;6.172;2023-07-08T13:03:31;29.10;1.00
16038;DHT22;8123;50.906;6.172;2023-07-08T13:06:00;29.20;1.00
16038;DHT22;8123;50.906;6.172;2023-07-08T13:08:30;29.20;1.00
16038;DHT22;8123;50.906;6.172;2023-07-08T13:10:58;29.20;1.00
16038;DHT22;8123;50.906;6.172;2023-07-08T13:13:38;29.20;1.00
16038;DHT22;8123;50.906;6.172;2023-07-08T13:16:06;29.20;1.00
16038;DHT22;8123;50.906;6.172;2023-07-08T13:18:41;29.20;1.00
16038;DHT22;8123;50.906;6.172;2023-07-08T13:21:11;29.30;1.00
16038;DHT22;8123;50.906;6.172;2023-07-08T13:23:38;29.30;1.00
16038;DHT22;8123;50.906;6.172;2023-07-08T13:26:14;29.50;1.00
16038;DHT22;8123;50.906;6.172;2023-07-08T13:28:41;29.70;1.00
16038;DHT22;8123;50.906;6.172;2023-07-08T13:31:21;29.70;1.00
16038;DHT22;8123;50.906;6.172;2023-07-08T13:33:49;30.00;1.00
16038;DHT22;8123;50.906;6.172;2023-07-08T13:36:18;30.10;1.00
16038;DHT22;8123;50.906;6.172;2023-07-08T13:38:45;30.00;1.00
16038;DHT22;8123;50.906;6.172;2023-07-08T13:41:13;29.90;1.00
16038;DHT22;8123;50.906;6.172;2023-07-08T13:43:43;29.90;1.00
16038;DHT22;8123;50.906;6.172;2023-07-08T13:51:47;30.20;1.00
16038;DHT22;8123;50.906;6.172;2023-07-08T13:54:21;30.20;1.00
16038;DHT22;8123;50.906;6.172;2023-07-08T13:56:48;30.30;1.00
16038;DHT22;8123;50.906;6.172;2023-07-08T13:59:32;30.40;1.00
16038;DHT22;8123;50.906;6.172;2023-07-08T14:01:58;30.60;1.00
16038;DHT22;8123;50.906;6.172;2023-07-08T14:04:34;30.80;1.00
16038;DHT22;8123;50.906;6.172;2023-07-08T14:07:01;30.70;1.00
16038;DHT22;8123;50.906;6.172;2023-07-08T14:09:26;30.60;1.00
16038;DHT22;8123;50.906;6.172;2023-07-08T14:11:53;30.60;1.00
16038;DHT22;8123;50.906;6.172;2023-07-08T14:14:19;30.60;1.00
16038;DHT22;8123;50.906;6.172;2023-07-08T14:16:48;30.70;1.00
16038;DHT22;8123;50.906;6.172;2023-07-08T14:19:28;30.70;1.00
16038;DHT22;8123;50.906;6.172;2023-07-08T14:21:56;30.60;1.00
16038;DHT22;8123;50.906;6.172;2023-07-08T14:24:23;30.50;1.00
16038;DHT22;8123;50.906;6.172;2023-07-08T14:26:48;30.40;1.00
16038;DHT22;8123;50.906;6.172;2023-07-08T14:29:14;30.40;1.00
16038;DHT22;8123;50.906;6.172;2023-07-08T14:31:40;30.40;1.00
16038;DHT22;8123;50.906;6.172;2023-07-08T14:34:13;30.40;1.00
16038;DHT22;8123;50.906;6.172;2023-07-08T14:36:40;30.40;1.00
16038;DHT22;8123;50.906;6.172;2023-07-08T14:39:11;30.60;1.00
16038;DHT22;8123;50.906;6.172;2023-07-08T14:41:37;30.60;1.00
16038;DHT22;8123;50.906;6.172;2023-07-08T14:44:22;30.70;1.00
16038;DHT22;8123;50.906;6.172;2023-07-08T14:46:48;30.60;1.00
16038;DHT22;8123;50.906;6.172;2023-07-08T14:49:17;30.60;1.00
16038;DHT22;8123;50.906;6.172;2023-07-08T14:51:43;30.80;1.00
16038;DHT22;8123;50.906;6.172;2023-07-08T14:54:08;30.70;1.00
16038;DHT22;8123;50.906;6.172;2023-07-08T14:56:34;30.60;1.00
16038;DHT22;8123;50.906;6.172;2023-07-08T14:59:00;30.60;1.00
16038;DHT22;8123;50.906;6.172;2023-07-08T15:01:25;30.60;1.00
16038;DHT22;8123;50.906;6.172;2023-07-08T15:03:55;30.50;1.00
16038;DHT22;8123;50.906;6.172;2023-07-08T15:06:21;30.50;1.00
16038;DHT22;8123;50.906;6.172;2023-07-08T15:08:47;30.60;1.00
16038;DHT22;8123;50.906;6.172;2023-07-08T15:11:13;30.50;1.00
16038;DHT22;8123;50.906;6.172;2023-07-08T15:13:41;30.50;1.00
16038;DHT22;8123;50.906;6.172;2023-07-08T15:16:17;30.50;1.00
16038;DHT22;8123;50.906;6.172;2023-07-08T15:18:44;30.40;1.00
16038;DHT22;8123;50.906;6.172;2023-07-08T15:21:11;30.40;1.00
16038;DHT22;8123;50.906;6.172;2023-07-08T15:23:37;30.40;1.00
16038;DHT22;8123;50.906;6.172;2023-07-08T15:26:03;30.40;1.00
16038;DHT22;8123;50.906;6.172;2023-07-08T15:28:56;30.40;1.00
16038;DHT22;8123;50.906;6.172;2023-07-08T15:31:24;30.40;1.00
16038;DHT22;8123;50.906;6.172;2023-07-08T15:33:52;30.40;1.00
16038;DHT22;8123;50.906;6.172;2023-07-08T15:36:17;30.20;1.00
16038;DHT22;8123;50.906;6.172;2023-07-08T15:38:43;30.20;1.00
16038;DHT22;8123;50.906;6.172;2023-07-08T15:41:22;30.20;1.00
16038;DHT22;8123;50.906;6.172;2023-07-08T15:43:48;30.10;1.00
16038;DHT22;8123;50.906;6.172;2023-07-08T15:46:15;30.10;1.00
16038;DHT22;8123;50.906;6.172;2023-07-08T15:48:42;30.10;1.00
16038;DHT22;8123;50.906;6.172;2023-07-08T15:51:09;30.20;1.00
16038;DHT22;8123;50.906;6.172;2023-07-08T15:53:38;30.10;1.00
16038;DHT22;8123;50.906;6.172;2023-07-08T15:56:03;30.10;1.00
16038;DHT22;8123;50.906;6.172;2023-07-08T15:58:32;30.10;1.00
16038;DHT22;8123;50.906;6.172;2023-07-08T16:01:00;30.10;1.00
16038;DHT22;8123;50.906;6.172;2023-07-08T16:03:31;30.20;1.00
16038;DHT22;8123;50.906;6.172;2023-07-08T16:05:58;30.30;1.00
16038;DHT22;8123;50.906;6.172;2023-07-08T16:08:25;30.10;1.00
16038;DHT22;8123;50.906;6.172;2023-07-08T16:10:56;30.10;1.00
16038;DHT22;8123;50.906;6.172;2023-07-08T16:13:31;30.00;1.00
16038;DHT22;8123;50.906;6.172;2023-07-08T16:15:57;29.90;1.00
16038;DHT22;8123;50.906;6.172;2023-07-08T16:18:23;29.80;1.00
16038;DHT22;8123;50.906;6.172;2023-07-08T16:20:48;29.80;1.00
16038;DHT22;8123;50.906;6.172;2023-07-08T16:23:14;29.70;1.00
16038;DHT22;8123;50.906;6.172;2023-07-08T16:25:43;29.60;1.00
16038;DHT22;8123;50.906;6.172;2023-07-08T16:28:35;29.60;1.00
16038;DHT22;8123;50.906;6.172;2023-07-08T16:31:17;29.50;1.00
16038;DHT22;8123;50.906;6.172;2023-07-08T16:33:44;29.40;1.00
16038;DHT22;8123;50.906;6.172;2023-07-08T16:36:16;29.40;1.00
16038;DHT22;8123;50.906;6.172;2023-07-08T16:38:44;29.30;1.00
16038;DHT22;8123;50.906;6.172;2023-07-08T16:41:22;29.30;1.00
16038;DHT22;8123;50.906;6.172;2023-07-08T16:43:48;29.30;1.00
16038;DHT22;8123;50.906;6.172;2023-07-08T16:46:16;29.30;1.00
16038;DHT22;8123;50.906;6.172;2023-07-08T16:48:42;29.30;1.00
16038;DHT22;8123;50.906;6.172;2023-07-08T16:53:40;29.20;1.00
16038;DHT22;8123;50.906;6.172;2023-07-08T16:56:11;29.10;1.00
16038;DHT22;8123;50.906;6.172;2023-07-08T16:58:37;29.00;1.00
16038;DHT22;8123;50.906;6.172;2023-07-08T17:01:03;28.90;1.00
16038;DHT22;8123;50.906;6.172;2023-07-08T17:03:30;28.80;1.00
16038;DHT22;8123;50.906;6.172;2023-07-08T17:05:59;28.80;1.60
16038;DHT22;8123;50.906;6.172;2023-07-08T17:08:24;28.70;2.30
16038;DHT22;8123;50.906;6.172;2023-07-08T17:10:50;28.50;2.80
16038;DHT22;8123;50.906;6.172;2023-07-08T17:13:16;28.50;3.40